sensor_id;sensor_type;location;lat;lon;timestamp;P1;durP1;ratioP1;P2;durP2;ratioP2
63218;SDS011;49320;52.512;13.448;2024-03-23T00:54:15;7.50;;;2.55;;
63218;SDS011;49320;52.512;13.448;2024-03-23T00:56:41;5.50;;;2.50;;
63218;SDS011;49320;52.512;13.448;2024-03-23T00:59:07;8.38;;;2.90;;
63218;SDS011;49320;52.512;13.448;2024-03-23T01:01:32;8.15;;;2.80;;
63218;SDS011;49320;52.512;13.448;2024-03-23T01:03:58;12.48;;;2.95;;
63218;SDS011;49320;52.512;13.448;2024-03-23T01:06:24;9.10;;;3.08;;
63218;SDS011;49320;52.512;13.448;2024-03-23T01:08:50;4.93;;;2.00;;
63218;SDS011;49320;52.512;13.448;2024-03-23T01:11:16;7.63;;;2.95;;
63218;SDS011;49320;52.512;13.448;2024-03-23T01:13:42;9.48;;;2.92;;
63218;SDS011;49320;52.512;13.448;2024-03-23T01:16:07;10.38;;;3.03;;
63218;SDS011;49320;52.512;13.448;2024-03-23T01:18:33;8.98;;;2.78;;
63218;SDS011;49320;52.512;13.448;2024-03-23T01:20:59;6.75;;;2.65;;
63218;SDS011;49320;52.512;13.448;2024-03-23T01:23:25;10.18;;;2.72;;
63218;SDS011;49320;52.512;13.448;2024-03-23T01:25:51;7.50;;;2.25;;
63218;SDS011;49320;52.512;13.448;2024-03-23T01:28:19;8.15;;;3.05;;
63218;SDS011;49320;52.512;13.448;2024-03-23T01:30:46;9.48;;;2.60;;
63218;SDS011;49320;52.512;13.448;2024-03-23T01:33:12;8.25;;;2.70;;
63218;SDS011;49320;52.512;13.448;2024-03-23T01:35:38;6.28;;;2.60;;
63218;SDS011;49320;52.512;13.448;2024-03-23T01:38:03;10.68;;;3.08;;
63218;SDS011;49320;52.512;13.448;2024-03-23T01:40:30;8.70;;;2.95;;
63218;SDS011;49320;52.512;13.448;2024-03-23T01:43:02;9.00;;;2.60;;
63218;SDS011;49320;52.512;13.448;2024-03-23T01:45:32;7.50;;;2.67;;
63218;SDS011;49320;52.512;13.448;2024-03-23T01:47:58;6.82;;;2.38;;
63218;SDS011;49320;52.512;13.448;2024-03-23T01:50:25;6.40;;;2.30;;
63218;SDS011;49320;52.512;13.448;2024-03-23T01:52:52;7.40;;;2.28;;
63218;SDS011;49320;52.512;13.448;2024-03-23T01:55:19;7.13;;;2.80;;
63218;SDS011;49320;52.512;13.448;2024-03-23T01:57:45;6.90;;;2.60;;
63218;SDS011;49320;52.512;13.448;2024-03-23T02:00:11;10.43;;;3.00;;
63218;SDS011;49320;52.512;13.448;2024-03-23T02:02:44;10.95;;;3.33;;
63218;SDS011;49320;52.512;13.448;2024-03-23T02:05:11;5.80;;;2.65;;
63218;SDS011;49320;52.512;13.448;2024-03-23T02:07:38;10.32;;;2.85;;
63218;SDS011;49320;52.512;13.448;2024-03-23T02:10:06;7.93;;;2.38;;
63218;SDS011;49320;52.512;13.448;2024-03-23T02:12:33;10.95;;;3.38;;
63218;SDS011;49320;52.512;13.448;2024-03-23T02:14:59;9.60;;;2.95;;
63218;SDS011;49320;52.512;13.448;2024-03-23T02:17:25;9.68;;;3.25;;
63218;SDS011;49320;52.512;13.448;2024-03-23T02:19:53;6.65;;;3.15;;
63218;SDS011;49320;52.512;13.448;2024-03-23T02:22:19;8.02;;;2.88;;
63218;SDS011;49320;52.512;13.448;2024-03-23T02:24:45;12.32;;;3.25;;
63218;SDS011;49320;52.512;13.448;2024-03-23T02:27:11;8.68;;;2.65;;
63218;SDS011;49320;52.512;13.448;2024-03-23T02:29:37;9.50;;;2.80;;
63218;SDS011;49320;52.512;13.448;2024-03-23T02:32:03;11.00;;;3.72;;
63218;SDS011;49320;52.512;13.448;2024-03-23T02:34:29;9.32;;;2.78;;
63218;SDS011;49320;52.512;13.448;2024-03-23T02:36:55;11.38;;;3.42;;
63218;SDS011;49320;52.512;13.448;2024-03-23T02:39:21;8.80;;;3.55;;
63218;SDS011;49320;52.512;13.448;2024-03-23T02:41:47;8.27;;;2.60;;
63218;SDS011;49320;52.512;13.448;2024-03-23T02:44:13;13.43;;;3.75;;
63218;SDS011;49320;52.512;13.448;2024-03-23T02:46:39;10.50;;;2.78;;
63218;SDS011;49320;52.512;13.448;2024-03-23T02:49:05;8.13;;;3.45;;
63218;SDS011;49320;52.512;13.448;2024-03-23T02:51:33;9.63;;;3.40;;
63218;SDS011;49320;52.512;13.448;2024-03-23T02:53:59;11.52;;;3.38;;
63218;SDS011;49320;52.512;13.448;2024-03-23T02:56:24;10.00;;;3.22;;
63218;SDS011;49320;52.512;13.448;2024-03-23T02:58:50;10.57;;;3.40;;
63218;SDS011;49320;52.512;13.448;2024-03-23T03:01:16;7.65;;;3.13;;
63218;SDS011;49320;52.512;13.448;2024-03-23T03:03:42;9.18;;;3.00;;
63218;SDS011;49320;52.512;13.448;2024-03-23T03:06:09;10.60;;;3.55;;
63218;SDS011;49320;52.512;13.448;2024-03-23T03:08:35;13.45;;;3.58;;
63218;SDS011;49320;52.512;13.448;2024-03-23T03:11:00;12.75;;;3.60;;
63218;SDS011;49320;52.512;13.448;2024-03-23T03:13:27;8.93;;;2.85;;
63218;SDS011;49320;52.512;13.448;2024-03-23T03:15:53;9.88;;;3.53;;
63218;SDS011;49320;52.512;13.448;2024-03-23T03:18:18;8.23;;;3.35;;
63218;SDS011;49320;52.512;13.448;2024-03-23T03:20:45;9.93;;;3.65;;
63218;SDS011;49320;52.512;13.448;2024-03-23T03:23:10;9.63;;;3.15;;
63218;SDS011;49320;52.512;13.448;2024-03-23T03:25:36;11.20;;;3.55;;
63218;SDS011;49320;52.512;13.448;2024-03-23T03:28:02;8.07;;;3.03;;
63218;SDS011;49320;52.512;13.448;2024-03-23T03:30:29;8.32;;;3.42;;
63218;SDS011;49320;52.512;13.448;2024-03-23T03:32:55;7.75;;;3.65;;
63218;SDS011;49320;52.512;13.448;2024-03-23T03:35:20;11.20;;;3.53;;
63218;SDS011;49320;52.512;13.448;2024-03-23T03:37:47;12.65;;;4.10;;
63218;SDS011;49320;52.512;13.448;2024-03-23T03:40:13;7.78;;;3.30;;
63218;SDS011;49320;52.512;13.448;2024-03-23T03:42:40;8.13;;;3.17;;
63218;SDS011;49320;52.512;13.448;2024-03-23T03:45:07;7.03;;;3.28;;
63218;SDS011;49320;52.512;13.448;2024-03-23T03:47:33;9.40;;;3.40;;
63218;SDS011;49320;52.512;13.448;2024-03-23T03:49:58;9.35;;;3.33;;
63218;SDS011;49320;52.512;13.448;2024-03-23T03:52:24;11.98;;;3.22;;
63218;SDS011;49320;52.512;13.448;2024-03-23T03:54:50;6.18;;;2.60;;
63218;SDS011;49320;52.512;13.448;2024-03-23T03:57:17;7.40;;;3.00;;
63218;SDS011;49320;52.512;13.448;2024-03-23T03:59:43;7.43;;;3.35;;
63218;SDS011;49320;52.512;13.448;2024-03-23T04:02:09;9.55;;;3.03;;
63218;SDS011;49320;52.512;13.448;2024-03-23T04:04:35;10.30;;;2.88;;
63218;SDS011;49320;52.512;13.448;2024-03-23T04:07:01;7.20;;;3.42;;
63218;SDS011;49320;52.512;13.448;2024-03-23T04:09:28;9.68;;;3.10;;
63218;SDS011;49320;52.512;13.448;2024-03-23T04:11:54;5.90;;;2.45;;
63218;SDS011;49320;52.512;13.448;2024-03-23T04:14:20;7.55;;;2.92;;
63218;SDS011;49320;52.512;13.448;2024-03-23T04:16:46;7.78;;;2.15;;
63218;SDS011;49320;52.512;13.448;2024-03-23T04:19:12;7.18;;;2.17;;
63218;SDS011;49320;52.512;13.448;2024-03-23T04:21:38;7.75;;;2.10;;
63218;SDS011;49320;52.512;13.448;2024-03-23T04:24:04;5.43;;;2.20;;
63218;SDS011;49320;52.512;13.448;2024-03-23T04:26:30;5.85;;;2.13;;
63218;SDS011;49320;52.512;13.448;2024-03-23T04:29:05;5.90;;;2.08;;
63218;SDS011;49320;52.512;13.448;2024-03-23T04:31:31;7.95;;;2.00;;
63218;SDS011;49320;52.512;13.448;2024-03-23T04:34:00;4.22;;;1.70;;
63218;SDS011;49320;52.512;13.448;2024-03-23T04:36:29;6.68;;;2.35;;
63218;SDS011;49320;52.512;13.448;2024-03-23T04:38:56;4.47;;;1.98;;
63218;SDS011;49320;52.512;13.448;2024-03-23T04:41:24;4.95;;;2.03;;
63218;SDS011;49320;52.512;13.448;2024-03-23T04:43:51;4.95;;;1.75;;
63218;SDS011;49320;52.512;13.448;2024-03-23T04:46:17;3.33;;;1.70;;
63218;SDS011;49320;52.512;13.448;2024-03-23T04:48:43;4.32;;;1.70;;
63218;SDS011;49320;52.512;13.448;2024-03-23T04:51:10;5.00;;;1.73;;
63218;SDS011;49320;52.512;13.448;2024-03-23T04:53:38;3.58;;;1.52;;
63218;SDS011;49320;52.512;13.448;2024-03-23T04:56:04;2.85;;;1.10;;
63218;SDS011;49320;52.512;13.448;2024-03-23T04:58:30;4.53;;;1.33;;
63218;SDS011;49320;52.512;13.448;2024-03-23T05:00:57;3.20;;;1.30;;
63218;SDS011;49320;52.512;13.448;2024-03-23T05:03:23;3.65;;;1.63;;
63218;SDS011;49320;52.512;13.448;2024-03-23T05:05:49;3.80;;;1.42;;
63218;SDS011;49320;52.512;13.448;2024-03-23T05:08:15;3.38;;;1.58;;
63218;SDS011;49320;52.512;13.448;2024-03-23T05:10:42;4.00;;;1.67;;
63218;SDS011;49320;52.512;13.448;2024-03-23T05:13:08;4.63;;;1.70;;
63218;SDS011;49320;52.512;13.448;2024-03-23T05:15:35;2.72;;;1.08;;
63218;SDS011;49320;52.512;13.448;2024-03-23T05:18:01;4.07;;;1.30;;
63218;SDS011;49320;52.512;13.448;2024-03-23T05:20:27;3.67;;;1.45;;
63218;SDS011;49320;52.512;13.448;2024-03-23T05:22:54;4.47;;;1.50;;
63218;SDS011;49320;52.512;13.448;2024-03-23T05:25:20;3.22;;;1.20;;
63218;SDS011;49320;52.512;13.448;2024-03-23T05:27:46;4.05;;;1.27;;
63218;SDS011;49320;52.512;13.448;2024-03-23T05:30:12;3.80;;;1.20;;
63218;SDS011;49320;52.512;13.448;2024-03-23T05:32:38;4.38;;;1.63;;
63218;SDS011;49320;52.512;13.448;2024-03-23T05:35:06;4.50;;;1.85;;
63218;SDS011;49320;52.512;13.448;2024-03-23T05:37:33;4.78;;;2.25;;
63218;SDS011;49320;52.512;13.448;2024-03-23T05:39:59;5.20;;;1.85;;
63218;SDS011;49320;52.512;13.448;2024-03-23T05:42:25;3.58;;;1.95;;
63218;SDS011;49320;52.512;13.448;2024-03-23T05:44:51;3.30;;;1.98;;
63218;SDS011;49320;52.512;13.448;2024-03-23T05:47:17;5.70;;;1.70;;
63218;SDS011;49320;52.512;13.448;2024-03-23T05:49:43;5.53;;;2.10;;
63218;SDS011;49320;52.512;13.448;2024-03-23T05:52:11;4.65;;;1.88;;
63218;SDS011;49320;52.512;13.448;2024-03-23T05:54:38;5.32;;;1.80;;
63218;SDS011;49320;52.512;13.448;2024-03-23T05:57:04;5.20;;;2.13;;
63218;SDS011;49320;52.512;13.448;2024-03-23T05:59:32;3.13;;;1.70;;
63218;SDS011;49320;52.512;13.448;2024-03-23T06:01:59;4.22;;;1.90;;
63218;SDS011;49320;52.512;13.448;2024-03-23T06:04:24;4.32;;;1.80;;
63218;SDS011;49320;52.512;13.448;2024-03-23T06:06:51;6.95;;;1.90;;
63218;SDS011;49320;52.512;13.448;2024-03-23T06:09:17;3.20;;;1.90;;
63218;SDS011;49320;52.512;13.448;2024-03-23T06:11:44;4.13;;;1.90;;
63218;SDS011;49320;52.512;13.448;2024-03-23T06:14:11;5.43;;;2.25;;
63218;SDS011;49320;52.512;13.448;2024-03-23T06:16:37;2.65;;;1.77;;
63218;SDS011;49320;52.512;13.448;2024-03-23T06:19:03;4.63;;;1.90;;
63218;SDS011;49320;52.512;13.448;2024-03-23T06:21:32;5.10;;;2.28;;
63218;SDS011;49320;52.512;13.448;2024-03-23T06:23:58;8.13;;;2.33;;
63218;SDS011;49320;52.512;13.448;2024-03-23T06:26:24;4.72;;;1.92;;
63218;SDS011;49320;52.512;13.448;2024-03-23T06:28:50;6.50;;;1.92;;
63218;SDS011;49320;52.512;13.448;2024-03-23T06:31:16;4.95;;;2.00;;
63218;SDS011;49320;52.512;13.448;2024-03-23T06:33:43;4.90;;;1.90;;
63218;SDS011;49320;52.512;13.448;2024-03-23T06:36:09;5.47;;;1.98;;
63218;SDS011;49320;52.512;13.448;2024-03-23T06:38:36;5.10;;;2.00;;
63218;SDS011;49320;52.512;13.448;2024-03-23T06:41:06;3.78;;;1.83;;
63218;SDS011;49320;52.512;13.448;2024-03-23T06:43:32;4.97;;;1.95;;
63218;SDS011;49320;52.512;13.448;2024-03-23T06:45:58;8.70;;;2.10;;
63218;SDS011;49320;52.512;13.448;2024-03-23T06:48:24;6.18;;;2.08;;
63218;SDS011;49320;52.512;13.448;2024-03-23T06:50:54;4.97;;;2.10;;
63218;SDS011;49320;52.512;13.448;2024-03-23T06:53:22;6.10;;;2.03;;
63218;SDS011;49320;52.512;13.448;2024-03-23T06:55:52;4.15;;;2.22;;
63218;SDS011;49320;52.512;13.448;2024-03-23T06:58:23;5.00;;;2.00;;
63218;SDS011;49320;52.512;13.448;2024-03-23T07:00:50;5.90;;;2.08;;
63218;SDS011;49320;52.512;13.448;2024-03-23T07:03:16;6.85;;;2.10;;
63218;SDS011;49320;52.512;13.448;2024-03-23T07:05:42;3.92;;;1.85;;
63218;SDS011;49320;52.512;13.448;2024-03-23T07:08:09;3.45;;;1.90;;
63218;SDS011;49320;52.512;13.448;2024-03-23T07:10:34;5.25;;;1.95;;
63218;SDS011;49320;52.512;13.448;2024-03-23T07:13:01;4.53;;;1.45;;
63218;SDS011;49320;52.512;13.448;2024-03-23T07:15:27;4.50;;;1.80;;
63218;SDS011;49320;52.512;13.448;2024-03-23T07:17:53;6.70;;;2.72;;
63218;SDS011;49320;52.512;13.448;2024-03-23T07:20:19;4.43;;;2.03;;
63218;SDS011;49320;52.512;13.448;2024-03-23T07:22:45;7.63;;;2.17;;
63218;SDS011;49320;52.512;13.448;2024-03-23T07:25:12;4.65;;;2.10;;
63218;SDS011;49320;52.512;13.448;2024-03-23T07:27:38;6.82;;;2.47;;
63218;SDS011;49320;52.512;13.448;2024-03-23T07:30:04;4.07;;;1.88;;
63218;SDS011;49320;52.512;13.448;2024-03-23T07:32:31;4.28;;;1.85;;
63218;SDS011;49320;52.512;13.448;2024-03-23T07:34:57;6.00;;;2.10;;
63218;SDS011;49320;52.512;13.448;2024-03-23T07:37:23;6.57;;;2.15;;
63218;SDS011;49320;52.512;13.448;2024-03-23T07:39:49;6.30;;;2.15;;
63218;SDS011;49320;52.512;13.448;2024-03-23T07:42:15;5.03;;;1.92;;
63218;SDS011;49320;52.512;13.448;2024-03-23T07:44:41;4.93;;;1.83;;
63218;SDS011;49320;52.512;13.448;2024-03-23T07:47:06;5.18;;;1.77;;
63218;SDS011;49320;52.512;13.448;2024-03-23T07:49:32;7.45;;;1.95;;
63218;SDS011;49320;52.512;13.448;2024-03-23T07:51:58;4.75;;;2.70;;
63218;SDS011;49320;52.512;13.448;2024-03-23T07:54:24;4.82;;;2.15;;
63218;SDS011;49320;52.512;13.448;2024-03-23T07:56:50;3.80;;;1.83;;
63218;SDS011;49320;52.512;13.448;2024-03-23T07:59:16;3.42;;;1.80;;
63218;SDS011;49320;52.512;13.448;2024-03-23T08:01:43;4.07;;;1.80;;
63218;SDS011;49320;52.512;13.448;2024-03-23T08:04:09;2.72;;;1.50;;
63218;SDS011;49320;52.512;13.448;2024-03-23T08:06:35;3.83;;;1.90;;
63218;SDS011;49320;52.512;13.448;2024-03-23T08:09:03;4.90;;;1.73;;
63218;SDS011;49320;52.512;13.448;2024-03-23T08:11:29;4.88;;;1.48;;
63218;SDS011;49320;52.512;13.448;2024-03-23T08:13:56;3.88;;;1.38;;
63218;SDS011;49320;52.512;13.448;2024-03-23T08:16:23;4.68;;;1.83;;
63218;SDS011;49320;52.512;13.448;2024-03-23T08:18:51;4.60;;;1.52;;
63218;SDS011;49320;52.512;13.448;2024-03-23T08:21:17;4.97;;;2.00;;
63218;SDS011;49320;52.512;13.448;2024-03-23T08:23:43;4.57;;;1.90;;
63218;SDS011;49320;52.512;13.448;2024-03-23T08:26:10;4.95;;;1.77;;
63218;SDS011;49320;52.512;13.448;2024-03-23T08:28:38;3.17;;;1.63;;
63218;SDS011;49320;52.512;13.448;2024-03-23T08:31:06;3.17;;;1.67;;
63218;SDS011;49320;52.512;13.448;2024-03-23T08:33:34;3.92;;;1.85;;
63218;SDS011;49320;52.512;13.448;2024-03-23T08:36:01;4.47;;;1.60;;
63218;SDS011;49320;52.512;13.448;2024-03-23T08:38:32;3.47;;;1.77;;
63218;SDS011;49320;52.512;13.448;2024-03-23T08:41:02;4.43;;;1.80;;
63218;SDS011;49320;52.512;13.448;2024-03-23T08:43:34;5.38;;;1.67;;
63218;SDS011;49320;52.512;13.448;2024-03-23T08:46:06;4.97;;;2.30;;
63218;SDS011;49320;52.512;13.448;2024-03-23T08:48:34;5.95;;;2.20;;
63218;SDS011;49320;52.512;13.448;2024-03-23T08:51:04;7.00;;;2.33;;
63218;SDS011;49320;52.512;13.448;2024-03-23T08:53:32;6.18;;;2.33;;
63218;SDS011;49320;52.512;13.448;2024-03-23T08:55:58;6.90;;;2.03;;
63218;SDS011;49320;52.512;13.448;2024-03-23T08:58:28;7.32;;;3.08;;
63218;SDS011;49320;52.512;13.448;2024-03-23T09:00:56;5.93;;;2.20;;
63218;SDS011;49320;52.512;13.448;2024-03-23T09:03:29;5.88;;;2.28;;
63218;SDS011;49320;52.512;13.448;2024-03-23T09:05:55;3.58;;;1.80;;
63218;SDS011;49320;52.512;13.448;2024-03-23T09:08:21;6.25;;;2.20;;
63218;SDS011;49320;52.512;13.448;2024-03-23T09:10:47;7.07;;;2.28;;
63218;SDS011;49320;52.512;13.448;2024-03-23T09:13:13;5.75;;;2.17;;
63218;SDS011;49320;52.512;13.448;2024-03-23T09:15:46;5.45;;;1.73;;
63218;SDS011;49320;52.512;13.448;2024-03-23T09:18:14;4.30;;;1.85;;
63218;SDS011;49320;52.512;13.448;2024-03-23T09:20:40;5.63;;;1.55;;
63218;SDS011;49320;52.512;13.448;2024-03-23T09:23:06;5.60;;;2.00;;
63218;SDS011;49320;52.512;13.448;2024-03-23T09:25:37;4.38;;;1.85;;
63218;SDS011;49320;52.512;13.448;2024-03-23T09:28:04;4.88;;;2.25;;
63218;SDS011;49320;52.512;13.448;2024-03-23T09:30:32;3.67;;;1.40;;
63218;SDS011;49320;52.512;13.448;2024-03-23T09:33:07;2.97;;;1.38;;
63218;SDS011;49320;52.512;13.448;2024-03-23T09:35:37;4.85;;;1.60;;
63218;SDS011;49320;52.512;13.448;2024-03-23T09:38:07;3.15;;;1.40;;
63218;SDS011;49320;52.512;13.448;2024-03-23T09:40:34;3.92;;;1.58;;
63218;SDS011;49320;52.512;13.448;2024-03-23T09:43:07;2.95;;;1.42;;
63218;SDS011;49320;52.512;13.448;2024-03-23T09:45:35;4.72;;;1.83;;
63218;SDS011;49320;52.512;13.448;2024-03-23T09:48:05;3.08;;;1.52;;
63218;SDS011;49320;52.512;13.448;2024-03-23T09:50:34;5.35;;;2.30;;
63218;SDS011;49320;52.512;13.448;2024-03-23T09:53:02;6.30;;;1.60;;
63218;SDS011;49320;52.512;13.448;2024-03-23T09:55:28;5.97;;;2.00;;
63218;SDS011;49320;52.512;13.448;2024-03-23T09:57:54;6.30;;;2.13;;
63218;SDS011;49320;52.512;13.448;2024-03-23T10:00:20;5.45;;;1.85;;
63218;SDS011;49320;52.512;13.448;2024-03-23T10:02:46;3.88;;;1.50;;
63218;SDS011;49320;52.512;13.448;2024-03-23T10:05:21;5.68;;;2.30;;
63218;SDS011;49320;52.512;13.448;2024-03-23T10:07:51;7.70;;;2.38;;
63218;SDS011;49320;52.512;13.448;2024-03-23T10:10:17;4.30;;;2.33;;
63218;SDS011;49320;52.512;13.448;2024-03-23T10:12:47;7.30;;;2.08;;
63218;SDS011;49320;52.512;13.448;2024-03-23T10:15:18;4.10;;;1.83;;
63218;SDS011;49320;52.512;13.448;2024-03-23T10:17:50;5.93;;;1.97;;
63218;SDS011;49320;52.512;13.448;2024-03-23T10:20:20;6.50;;;1.50;;
63218;SDS011;49320;52.512;13.448;2024-03-23T10:22:49;5.13;;;2.00;;
63218;SDS011;49320;52.512;13.448;2024-03-23T10:25:17;4.38;;;1.95;;
63218;SDS011;49320;52.512;13.448;2024-03-23T10:27:57;5.85;;;1.98;;
63218;SDS011;49320;52.512;13.448;2024-03-23T10:30:26;4.13;;;2.00;;
63218;SDS011;49320;52.512;13.448;2024-03-23T10:33:11;4.43;;;1.80;;
63218;SDS011;49320;52.512;13.448;2024-03-23T10:35:38;4.68;;;1.73;;
63218;SDS011;49320;52.512;13.448;2024-03-23T10:38:04;4.43;;;2.03;;
63218;SDS011;49320;52.512;13.448;2024-03-23T10:40:33;3.85;;;1.80;;
63218;SDS011;49320;52.512;13.448;2024-03-23T10:43:00;4.30;;;1.85;;
63218;SDS011;49320;52.512;13.448;2024-03-23T10:45:29;4.00;;;1.42;;
63218;SDS011;49320;52.512;13.448;2024-03-23T10:47:56;6.22;;;1.90;;
63218;SDS011;49320;52.512;13.448;2024-03-23T10:50:22;4.03;;;1.80;;
63218;SDS011;49320;52.512;13.448;2024-03-23T10:52:49;4.68;;;2.22;;
63218;SDS011;49320;52.512;13.448;2024-03-23T10:55:17;6.90;;;2.38;;
63218;SDS011;49320;52.512;13.448;2024-03-23T10:57:45;5.70;;;2.03;;
63218;SDS011;49320;52.512;13.448;2024-03-23T11:00:17;4.40;;;1.90;;
63218;SDS011;49320;52.512;13.448;2024-03-23T11:02:47;6.28;;;2.47;;
63218;SDS011;49320;52.512;13.448;2024-03-23T11:07:52;6.57;;;2.20;;
63218;SDS011;49320;52.512;13.448;2024-03-23T11:10:25;4.63;;;1.58;;
63218;SDS011;49320;52.512;13.448;2024-03-23T11:12:54;6.53;;;2.08;;
63218;SDS011;49320;52.512;13.448;2024-03-23T11:15:23;5.22;;;1.67;;
63218;SDS011;49320;52.512;13.448;2024-03-23T11:18:02;3.92;;;1.83;;
63218;SDS011;49320;52.512;13.448;2024-03-23T11:20:37;5.20;;;1.75;;
63218;SDS011;49320;52.512;13.448;2024-03-23T11:23:04;6.38;;;1.88;;
63218;SDS011;49320;52.512;13.448;2024-03-23T11:25:30;6.38;;;2.20;;
63218;SDS011;49320;52.512;13.448;2024-03-23T11:27:57;3.22;;;1.60;;
63218;SDS011;49320;52.512;13.448;2024-03-23T11:30:37;5.38;;;2.00;;
63218;SDS011;49320;52.512;13.448;2024-03-23T11:33:05;4.43;;;1.90;;
63218;SDS011;49320;52.512;13.448;2024-03-23T11:35:32;4.53;;;2.03;;
63218;SDS011;49320;52.512;13.448;2024-03-23T11:45:44;4.50;;;1.80;;
63218;SDS011;49320;52.512;13.448;2024-03-23T11:48:14;5.72;;;2.50;;
63218;SDS011;49320;52.512;13.448;2024-03-23T11:50:44;5.10;;;2.20;;
63218;SDS011;49320;52.512;13.448;2024-03-23T11:53:17;5.80;;;2.60;;
63218;SDS011;49320;52.512;13.448;2024-03-23T11:55:49;4.90;;;2.20;;
63218;SDS011;49320;52.512;13.448;2024-03-23T11:58:23;4.20;;;1.95;;
63218;SDS011;49320;52.512;13.448;2024-03-23T12:01:03;5.45;;;2.25;;
63218;SDS011;49320;52.512;13.448;2024-03-23T12:03:30;4.75;;;2.00;;
63218;SDS011;49320;52.512;13.448;2024-03-23T12:06:01;7.28;;;2.60;;
63218;SDS011;49320;52.512;13.448;2024-03-23T12:08:29;6.32;;;2.50;;
63218;SDS011;49320;52.512;13.448;2024-03-23T12:11:07;4.55;;;2.10;;
63218;SDS011;49320;52.512;13.448;2024-03-23T12:13:38;5.03;;;2.15;;
63218;SDS011;49320;52.512;13.448;2024-03-23T12:18:40;6.15;;;2.60;;
63218;SDS011;49320;52.512;13.448;2024-03-23T12:21:08;4.00;;;2.25;;
63218;SDS011;49320;52.512;13.448;2024-03-23T12:23:34;4.38;;;2.20;;
63218;SDS011;49320;52.512;13.448;2024-03-23T12:26:01;4.30;;;1.83;;
63218;SDS011;49320;52.512;13.448;2024-03-23T12:28:27;4.22;;;2.05;;
63218;SDS011;49320;52.512;13.448;2024-03-23T12:30:53;3.83;;;1.90;;
63218;SDS011;49320;52.512;13.448;2024-03-23T12:33:20;5.70;;;1.98;;
63218;SDS011;49320;52.512;13.448;2024-03-23T12:35:47;5.60;;;2.10;;
63218;SDS011;49320;52.512;13.448;2024-03-23T12:38:17;2.90;;;1.60;;
63218;SDS011;49320;52.512;13.448;2024-03-23T12:40:49;5.07;;;2.25;;
63218;SDS011;49320;52.512;13.448;2024-03-23T12:43:16;5.47;;;2.10;;
63218;SDS011;49320;52.512;13.448;2024-03-23T12:45:49;6.03;;;1.75;;
63218;SDS011;49320;52.512;13.448;2024-03-23T12:48:18;5.32;;;2.20;;
63218;SDS011;49320;52.512;13.448;2024-03-23T12:50:44;4.43;;;2.08;;
63218;SDS011;49320;52.512;13.448;2024-03-23T12:53:10;5.10;;;2.17;;
63218;SDS011;49320;52.512;13.448;2024-03-23T12:55:36;4.82;;;2.08;;
63218;SDS011;49320;52.512;13.448;2024-03-23T12:58:02;6.63;;;2.30;;
63218;SDS011;49320;52.512;13.448;2024-03-23T13:00:28;4.50;;;1.70;;
63218;SDS011;49320;52.512;13.448;2024-03-23T13:02:54;3.85;;;1.73;;
63218;SDS011;49320;52.512;13.448;2024-03-23T13:05:20;3.65;;;2.00;;
63218;SDS011;49320;52.512;13.448;2024-03-23T13:07:46;4.07;;;1.40;;
63218;SDS011;49320;52.512;13.448;2024-03-23T13:10:11;6.18;;;1.70;;
63218;SDS011;49320;52.512;13.448;2024-03-23T13:12:38;3.67;;;1.73;;
63218;SDS011;49320;52.512;13.448;2024-03-23T13:15:04;4.65;;;1.30;;
63218;SDS011;49320;52.512;13.448;2024-03-23T13:17:31;3.55;;;1.35;;
63218;SDS011;49320;52.512;13.448;2024-03-23T13:19:57;4.72;;;1.77;;
63218;SDS011;49320;52.512;13.448;2024-03-23T13:22:23;3.55;;;1.63;;
63218;SDS011;49320;52.512;13.448;2024-03-23T13:24:48;4.90;;;1.92;;
63218;SDS011;49320;52.512;13.448;2024-03-23T13:27:15;6.20;;;2.15;;
63218;SDS011;49320;52.512;13.448;2024-03-23T13:29:41;4.82;;;2.38;;
63218;SDS011;49320;52.512;13.448;2024-03-23T13:32:08;4.55;;;2.10;;
63218;SDS011;49320;52.512;13.448;2024-03-23T13:34:35;4.32;;;2.20;;
63218;SDS011;49320;52.512;13.448;2024-03-23T13:37:01;4.65;;;2.33;;
63218;SDS011;49320;52.512;13.448;2024-03-23T13:39:27;7.13;;;2.78;;
63218;SDS011;49320;52.512;13.448;2024-03-23T13:41:54;5.93;;;2.13;;
63218;SDS011;49320;52.512;13.448;2024-03-23T13:44:23;6.68;;;2.70;;
63218;SDS011;49320;52.512;13.448;2024-03-23T13:46:49;5.88;;;2.50;;
63218;SDS011;49320;52.512;13.448;2024-03-23T13:49:24;3.67;;;2.28;;
63218;SDS011;49320;52.512;13.448;2024-03-23T13:51:54;5.30;;;2.30;;
63218;SDS011;49320;52.512;13.448;2024-03-23T13:54:22;4.50;;;1.83;;
63218;SDS011;49320;52.512;13.448;2024-03-23T13:56:50;5.70;;;2.28;;
63218;SDS011;49320;52.512;13.448;2024-03-23T13:59:16;4.32;;;2.15;;
63218;SDS011;49320;52.512;13.448;2024-03-23T14:01:43;6.70;;;2.45;;
63218;SDS011;49320;52.512;13.448;2024-03-23T14:04:13;4.10;;;2.40;;
63218;SDS011;49320;52.512;13.448;2024-03-23T14:06:39;5.95;;;2.55;;
63218;SDS011;49320;52.512;13.448;2024-03-23T14:09:05;4.72;;;2.22;;
63218;SDS011;49320;52.512;13.448;2024-03-23T14:11:35;7.05;;;2.17;;
63218;SDS011;49320;52.512;13.448;2024-03-23T14:14:02;4.95;;;2.08;;
63218;SDS011;49320;52.512;13.448;2024-03-23T14:16:29;7.30;;;2.75;;
63218;SDS011;49320;52.512;13.448;2024-03-23T14:18:56;5.47;;;2.65;;
63218;SDS011;49320;52.512;13.448;2024-03-23T14:21:22;6.20;;;2.50;;
63218;SDS011;49320;52.512;13.448;2024-03-23T14:23:49;6.35;;;2.50;;
63218;SDS011;49320;52.512;13.448;2024-03-23T14:26:15;7.72;;;2.60;;
63218;SDS011;49320;52.512;13.448;2024-03-23T14:28:41;7.78;;;2.47;;
63218;SDS011;49320;52.512;13.448;2024-03-23T14:31:06;4.72;;;2.22;;
63218;SDS011;49320;52.512;13.448;2024-03-23T14:33:38;5.93;;;2.10;;
63218;SDS011;49320;52.512;13.448;2024-03-23T14:36:12;5.47;;;2.28;;
63218;SDS011;49320;52.512;13.448;2024-03-23T14:38:42;4.88;;;2.28;;
63218;SDS011;49320;52.512;13.448;2024-03-23T14:41:13;5.13;;;2.13;;
63218;SDS011;49320;52.512;13.448;2024-03-23T14:43:39;4.10;;;1.65;;
63218;SDS011;49320;52.512;13.448;2024-03-23T14:48:36;6.32;;;2.47;;
63218;SDS011;49320;52.512;13.448;2024-03-23T14:51:03;5.03;;;2.03;;
63218;SDS011;49320;52.512;13.448;2024-03-23T14:53:30;4.30;;;2.00;;
63218;SDS011;49320;52.512;13.448;2024-03-23T14:55:57;4.20;;;1.77;;
63218;SDS011;49320;52.512;13.448;2024-03-23T14:58:25;6.22;;;2.10;;
63218;SDS011;49320;52.512;13.448;2024-03-23T15:00:52;5.00;;;2.13;;
63218;SDS011;49320;52.512;13.448;2024-03-23T15:03:18;4.93;;;1.52;;
63218;SDS011;49320;52.512;13.448;2024-03-23T15:05:51;4.25;;;1.60;;
63218;SDS011;49320;52.512;13.448;2024-03-23T15:08:21;1.50;;;1.00;;
63218;SDS011;49320;52.512;13.448;2024-03-23T15:10:48;2.67;;;1.25;;
63218;SDS011;49320;52.512;13.448;2024-03-23T15:13:14;1.30;;;0.90;;
63218;SDS011;49320;52.512;13.448;2024-03-23T15:15:41;4.00;;;1.65;;
63218;SDS011;49320;52.512;13.448;2024-03-23T15:18:14;3.25;;;1.20;;
63218;SDS011;49320;52.512;13.448;2024-03-23T15:20:53;4.43;;;1.83;;
63218;SDS011;49320;52.512;13.448;2024-03-23T15:23:20;3.25;;;1.50;;
63218;SDS011;49320;52.512;13.448;2024-03-23T15:25:53;4.20;;;1.73;;
63218;SDS011;49320;52.512;13.448;2024-03-23T15:28:23;4.18;;;2.10;;
63218;SDS011;49320;52.512;13.448;2024-03-23T15:30:52;4.63;;;2.25;;
63218;SDS011;49320;52.512;13.448;2024-03-23T15:33:18;3.53;;;1.58;;
63218;SDS011;49320;52.512;13.448;2024-03-23T15:35:44;4.40;;;1.90;;
63218;SDS011;49320;52.512;13.448;2024-03-23T15:38:10;2.38;;;1.63;;
63218;SDS011;49320;52.512;13.448;2024-03-23T15:40:36;3.45;;;1.60;;
63218;SDS011;49320;52.512;13.448;2024-03-23T15:43:02;4.35;;;1.95;;